Date,TemperatureHighF,TemperatureAvgF,TemperatureLowF,DewpointHighF,DewpointAvgF,DewpointLowF,HumidityHigh,HumidityAvg,HumidityLow,PressureMaxIn,PressureMinIn,WindSpeedMaxMPH,WindSpeedAvgMPH,GustSpeedMaxMPH,PrecipitationSumIn
2014-1-1,15.1,11.2,7.4,11.6,7.3,3.2,87,84,80,30.57,30.50,0,0,0,0.00
2014-1-2,14.8,9.1,-1.1,10.5,5.1,-5.7,86,84,81,30.76,30.52,0,0,0,0.00
2014-1-3,20.3,8.8,-5.8,17.3,4.8,-9.9,89,84,79,30.74,30.06,0,0,0,0.00
2014-1-4,32.8,25.6,20.5,28.7,22.2,17.3,89,87,85,30.33,30.02,0,0,0,0.00
2014-1-5,21.1,8.9,-9.9,17.6,2.7,-16.5,87,75,65,30.54,30.33,0,0,0,0.00
2014-1-6,-8.3,-11.3,-16.2,-13.4,-17.1,-22.2,78,75,73,30.62,30.53,0,0,0,0.00
2014-1-7,8.3,-0.9,-9.7,3.0,-6.3,-14.8,81,78,73,30.61,30.48,0,0,0,0.00
2014-1-8,14.4,4.9,-3.2,7.7,-0.5,-7.9,82,78,72,30.81,30.56,0,0,0,0.00
2014-1-9,26.6,12.6,-1.3,23.9,8.5,-5.9,90,84,76,30.81,30.39,0,0,0,0.00
2014-1-10,37.8,32.8,26.6,36.0,30.9,24.1,94,93,90,30.39,29.75,0,0,0,0.01
2014-1-11,36.4,32.7,30.1,34.6,29.8,26.1,95,89,81,30.12,29.74,0,0,0,0.00
2014-1-12,44.8,34.8,25.0,36.4,30.0,22.5,91,83,70,30.13,29.80,0,0,0,0.00
2014-1-13,40.3,33.8,26.5,35.1,29.2,22.5,89,83,75,30.07,29.83,0,0,0,0.00
2014-1-14,34.6,28.6,17.6,31.9,23.2,12.4,91,80,72,30.29,29.86,0,0,0,0.00
2014-1-15,23.4,15.4,9.0,17.9,9.7,4.2,83,78,73,30.45,30.02,0,0,0,0.00
2014-1-16,38.9,26.8,11.3,32.9,19.9,3.8,84,75,66,30.09,29.77,0,0,0,0.00
2014-1-17,17.6,11.5,5.9,10.9,5.1,-0.4,80,75,71,30.32,30.09,0,0,0,0.00
2014-1-18,23.0,15.3,7.6,20.3,11.7,2.9,89,85,80,30.26,29.89,0,0,0,0.00
2014-1-19,39.1,27.0,8.6,33.8,23.2,5.3,91,85,77,30.22,29.84,0,0,0,0.01
2014-1-20,36.4,29.4,13.3,31.3,24.5,9.8,87,82,73,30.44,29.97,0,0,0,0.00
2014-1-21,13.0,6.3,-0.4,9.6,2.3,-4.6,87,83,80,30.68,30.46,0,0,0,0.00
2014-1-22,18.7,5.2,-1.8,15.7,-0.1,-8.4,88,79,73,30.62,30.25,0,0,0,0.00
2014-1-23,1.8,-2.9,-7.2,-5.5,-9.5,-13.1,78,73,69,30.99,30.63,0,0,0,0.00
2014-1-24,30.8,16.8,-4.0,27.8,9.2,-9.2,89,72,61,30.86,29.77,0,0,0,0.00
2014-1-25,33.5,18.2,7.6,31.3,9.5,-1.3,92,69,58,30.22,29.76,0,0,0,0.00
2014-1-26,36.4,21.1,1.6,28.4,15.6,-4.7,92,79,70,30.31,29.65,0,0,0,0.00
2014-1-27,1.6,-3.5,-8.6,-4.6,-11.0,-15.6,75,70,63,30.79,30.31,0,0,0,0.00
2014-1-28,9.2,-0.8,-10.8,0.2,-7.9,-16.7,78,72,65,30.79,30.55,0,0,0,0.00
2014-1-29,26.8,19.9,2.3,15.1,9.6,-4.0,75,64,59,30.51,30.16,0,0,0,0.00
2014-1-30,32.0,26.2,14.9,28.4,18.2,9.2,87,72,59,30.28,29.89,0,0,0,0.00
2014-1-31,21.2,13.3,7.6,11.8,6.1,1.5,79,73,66,30.51,30.28,0,0,0,0.00
2014-2-1,26.6,19.4,14.2,22.5,15.4,8.0,87,84,76,30.46,30.19,0,0,0,0.00
2014-2-2,16.2,7.4,-1.1,11.9,1.5,-6.8,83,76,69,30.66,30.46,0,0,0,0.00
2014-2-3,15.5,4.6,-6.1,8.0,-1.1,-11.1,83,77,70,30.71,30.63,0,0,0,0.00
2014-2-4,20.5,13.5,6.3,14.6,7.8,0.2,88,78,69,30.71,30.44,0,0,0,0.00
2014-2-5,21.2,14.0,-0.2,18.7,10.7,-4.6,90,87,82,30.82,30.41,0,0,0,0.00
2014-2-6,6.1,-0.5,-7.7,1.8,-5.0,-12.1,83,81,79,30.83,30.70,0,0,0,0.00
2014-2-7,14.0,5.8,-4.1,8.7,1.0,-8.8,83,80,78,30.72,30.59,0,0,0,0.00
2014-2-8,19.8,14.2,6.7,15.7,10.1,1.5,87,84,79,30.60,30.40,0,0,0,0.00
2014-2-9,18.4,10.0,-1.1,13.4,5.3,-6.6,86,81,76,30.67,30.42,0,0,0,0.00
2014-2-10,5.4,-1.4,-9.2,-1.4,-7.1,-13.9,81,76,72,30.82,30.65,0,0,0,0.00
2014-2-11,8.8,-1.2,-11.7,0.9,-7.2,-16.7,80,75,69,30.84,30.61,0,0,0,0.00
2014-2-12,25.6,16.4,-3.1,17.3,9.3,-9.3,79,74,64,30.61,30.25,0,0,0,0.00
2014-2-13,38.2,24.4,14.2,32.2,17.8,8.7,84,76,71,30.25,29.83,0,0,0,0.00
2014-2-14,22.7,14.4,7.0,15.7,8.5,1.5,82,77,71,30.33,29.97,0,0,0,0.00
2014-2-15,25.0,11.5,1.3,16.6,6.3,-3.3,86,79,66,30.39,30.22,0,0,0,0.00
2014-2-16,27.5,21.3,18.4,20.2,15.7,13.2,86,79,68,30.55,30.24,0,0,0,0.00
2014-2-17,31.7,25.7,20.5,29.5,22.7,15.0,93,88,79,30.47,29.99,0,0,0,0.00
2014-2-18,47.9,37.3,20.5,41.1,31.3,18.1,95,80,63,30.19,29.89,0,0,0,0.01
2014-2-19,40.7,34.7,27.5,32.3,29.3,23.6,86,80,72,30.25,29.99,0,0,0,0.00
2014-2-20,43.6,34.9,32.8,42.2,33.3,30.3,96,94,84,30.11,29.36,0,0,0,0.00
2014-2-21,34.7,28.5,22.0,30.4,22.0,17.6,91,77,63,30.14,29.64,0,0,0,0.00
2014-2-22,34.4,25.6,16.4,21.2,17.0,8.9,83,70,55,30.42,30.14,0,0,0,0.00
2014-2-23,25.2,18.8,13.7,13.0,9.5,6.8,74,67,58,30.60,30.43,0,0,0,0.00
2014-2-24,25.9,17.9,11.2,13.2,8.8,4.8,78,68,56,30.66,30.55,0,0,0,0.00
2014-2-25,18.0,12.3,3.6,9.5,4.0,-3.9,80,70,55,30.61,30.54,0,0,0,0.00
2014-2-26,19.6,8.4,-4.3,10.4,-1.1,-11.3,74,65,55,30.64,30.01,0,0,0,0.00
2014-2-27,16.6,5.9,1.1,5.5,-5.7,-9.9,66,59,52,30.48,30.05,0,0,0,0.00
2014-2-28,33.3,18.8,1.1,20.6,8.5,-8.7,71,64,54,30.45,30.19,0,0,0,0.00
2014-3-1,28.3,19.5,9.4,20.9,12.4,4.5,82,74,57,30.70,30.30,0,0,0,0.00
2014-3-2,9.9,5.0,-4.7,4.5,-3.9,-13.8,81,67,54,30.79,30.66,0,0,0,0.00
2014-3-3,13.5,0.3,-7.7,3.9,-7.8,-15.7,73,68,63,30.84,30.63,0,0,0,0.00
2014-3-4,29.0,19.3,8.3,17.3,10.7,1.5,76,69,56,30.65,30.42,0,0,0,0.00
2014-3-5,23.0,19.8,15.1,18.0,14.3,9.0,86,79,73,30.72,30.52,0,0,0,0.00
2014-3-6,28.3,18.0,8.3,20.7,12.0,4.0,83,77,71,30.70,30.40,0,0,0,0.00
2014-3-7,52.9,40.6,18.7,37.6,30.8,15.1,87,69,50,30.30,30.14,0,0,0,0.01
2014-3-8,38.0,33.0,24.1,30.6,27.3,18.9,86,79,71,30.58,30.30,0,0,0,0.00
2014-3-9,45.7,34.7,19.4,34.7,27.0,15.7,88,74,60,30.57,30.07,0,0,0,0.00
2014-3-10,58.3,48.3,39.2,46.5,38.8,31.6,82,70,61,30.07,29.96,0,0,0,0.00
2014-3-11,48.2,41.7,37.6,39.5,35.6,32.3,87,79,63,30.07,29.91,0,0,0,0.00
2014-3-12,38.0,33.3,24.1,32.4,26.3,18.5,85,75,64,30.40,30.04,0,0,0,0.00
2014-3-13,47.2,34.8,19.1,37.3,27.6,14.9,87,75,65,30.40,30.07,0,0,0,0.00
2014-3-14,53.5,44.8,34.4,37.7,33.5,28.7,81,65,51,30.20,29.87,0,0,0,0.00
2014-3-15,43.0,35.8,29.2,30.4,27.6,24.3,84,72,55,30.51,30.20,0,0,0,0.00
2014-3-16,31.7,24.4,19.4,28.0,16.6,10.4,87,73,58,30.67,30.44,0,0,0,0.00
2014-3-17,38.5,27.9,15.3,25.0,18.4,10.0,82,68,53,30.45,29.99,0,0,0,0.00
2014-3-18,51.5,40.9,30.1,41.1,33.4,23.4,85,75,62,30.05,29.84,0,0,0,0.00
2014-3-19,42.3,37.5,31.0,38.1,32.8,25.3,91,83,72,30.33,29.79,0,0,0,0.01
2014-3-20,47.9,38.8,27.5,35.5,29.8,23.4,88,71,53,30.36,30.23,0,0,0,0.00
2014-3-21,61.2,44.7,31.7,44.5,34.2,26.7,84,67,49,30.27,29.96,0,0,0,0.00
2014-3-22,40.0,34.5,25.0,28.5,22.9,12.7,77,63,46,30.68,30.26,0,0,0,0.00
2014-3-23,32.2,25.5,17.3,15.6,10.7,7.1,65,54,41,30.79,30.66,0,0,0,0.00
2014-3-24,42.3,30.3,18.5,24.2,16.9,8.6,81,58,42,30.70,30.39,0,0,0,0.00
2014-3-25,28.8,24.0,16.9,23.0,13.7,7.7,83,65,52,30.56,30.38,0,0,0,0.00
2014-3-26,44.1,31.4,14.4,24.6,17.2,7.7,79,57,38,30.59,30.18,0,0,0,0.00
2014-3-27,52.0,43.6,35.6,48.0,37.5,24.6,88,79,54,30.18,29.63,0,0,0,0.00
2014-3-28,44.5,40.3,37.4,41.4,34.3,30.6,90,79,69,30.46,29.68,0,0,0,0.00
2014-3-29,49.0,40.8,34.7,35.2,30.2,26.3,85,67,47,30.54,30.45,0,0,0,0.00
2014-3-30,61.9,46.9,27.5,40.7,34.3,23.1,86,64,41,30.54,30.23,0,0,0,0.00
2014-3-31,68.2,55.8,42.8,45.8,41.0,35.3,78,59,41,30.25,29.86,0,0,0,0.00
2014-4-1,50.2,38.9,28.3,35.4,25.9,17.8,68,60,48,30.38,30.00,0,0,0,0.00
2014-4-2,49.9,41.7,31.9,36.6,31.1,25.8,81,66,56,30.43,30.25,0,0,0,0.00
2014-4-3,41.9,38.8,36.0,38.8,36.0,31.2,94,90,81,30.26,29.84,0,0,0,0.01
2014-4-4,43.0,38.3,36.4,41.4,32.9,28.5,94,81,68,30.36,29.70,0,0,0,0.00
2014-4-5,54.4,42.8,27.7,41.6,30.6,23.5,87,63,47,30.50,30.36,0,0,0,0.00
2014-4-6,59.4,47.6,33.1,41.0,33.8,26.0,80,60,44,30.40,30.18,0,0,0,0.00
2014-4-7,58.5,48.0,40.1,43.3,36.4,31.7,74,64,47,30.19,29.92,0,0,0,0.00
2014-4-8,62.1,51.6,40.0,43.2,36.0,31.1,80,58,37,30.24,29.97,0,0,0,0.00
2014-4-9,68.2,54.9,34.2,46.5,34.3,27.6,79,48,32,30.33,30.05,0,0,0,0.00
2014-4-10,54.0,52.5,49.3,36.1,32.9,27.7,51,47,42,30.26,29.88,0,0,0,0.00
2014-4-11,76.0,59.7,39.2,45.3,32.4,26.3,65,38,24,30.34,30.21,0,0,0,0.00
2014-4-12,83.2,68.5,51.3,59.0,48.2,30.5,67,49,37,30.25,29.88,0,0,0,0.00
2014-4-13,67.3,60.3,49.3,60.2,55.4,47.1,94,85,65,30.01,29.63,0,0,0,0.01
2014-4-14,49.3,37.1,30.6,47.1,32.4,23.2,93,83,74,30.33,29.65,0,0,0,0.00
2014-4-15,44.6,35.0,25.7,33.5,21.8,14.9,83,60,43,30.45,30.33,0,0,0,0.00
2014-4-16,57.1,44.6,30.8,33.2,27.6,16.7,73,52,37,30.46,30.24,0,0,0,0.00
2014-4-17,57.6,49.4,42.1,40.8,35.6,29.9,75,59,50,30.57,30.27,0,0,0,0.00
2014-4-18,63.4,49.3,32.8,47.0,34.4,27.9,85,59,38,30.66,30.55,0,0,0,0.00
2014-4-19,72.5,54.2,33.8,41.0,34.6,27.9,80,51,29,30.62,30.42,0,0,0,0.00
2014-4-20,81.5,67.1,45.4,51.0,45.0,35.6,72,47,33,30.46,30.27,0,0,0,0.01
2014-4-21,71.6,63.6,55.8,61.9,52.3,43.3,84,67,48,30.29,30.12,0,0,0,0.00
2014-4-22,64.6,54.6,43.6,44.4,34.4,28.3,72,48,30,30.35,30.18,0,0,0,0.00
2014-4-23,56.5,46.6,34.9,40.1,33.0,27.7,78,61,36,30.46,30.21,0,0,0,0.00
2014-4-24,64.6,52.6,42.1,51.1,43.5,35.5,90,72,44,30.24,29.90,0,0,0,0.00
2014-4-25,72.0,60.0,42.1,55.5,43.6,37.8,90,59,32,30.14,29.93,0,0,0,0.00
2014-4-26,68.0,56.4,42.7,43.7,38.7,30.9,75,53,36,30.23,30.11,0,0,0,0.00
2014-4-27,67.9,52.1,40.1,51.9,43.2,31.3,95,73,44,30.24,29.90,0,0,0,0.01
2014-4-28,56.5,50.9,45.9,52.5,47.9,43.7,94,89,78,29.91,29.64,0,0,0,0.00
2014-4-29,61.7,51.6,46.4,54.9,48.1,44.6,95,88,69,29.88,29.65,0,0,0,0.00
2014-4-30,49.1,44.0,39.2,45.4,38.9,35.6,90,82,69,30.04,29.88,0,0,0,0.00
2014-5-1,51.3,45.5,40.3,43.7,40.9,37.4,91,84,74,30.13,29.94,0,0,0,0.00
2014-5-2,63.0,52.0,44.5,46.9,43.3,41.1,89,73,51,30.13,29.91,0,0,0,0.00
2014-5-3,69.8,58.9,43.0,47.4,41.8,37.3,81,56,36,30.21,29.96,0,0,0,0.00
2014-5-4,57.8,54.1,49.5,41.7,37.3,29.3,64,53,39,30.36,30.20,0,0,0,0.00
2014-5-5,65.5,55.0,45.0,39.7,34.8,28.1,63,47,32,30.27,30.13,0,0,0,0.00
2014-5-6,72.2,57.9,40.7,45.0,38.4,32.7,74,51,33,30.22,30.00,0,0,0,0.00
2014-5-7,82.8,68.0,56.0,66.7,54.7,41.0,80,63,48,30.05,29.91,0,0,0,0.01
2014-5-8,88.2,75.8,67.3,67.1,62.7,58.1,80,65,47,30.10,29.98,0,0,0,0.00
2014-5-9,75.2,64.2,52.2,61.0,51.1,42.1,88,64,48,30.16,29.93,0,0,0,0.00
2014-5-10,85.7,67.3,49.0,59.7,47.3,41.9,77,52,33,30.22,30.08,0,0,0,0.00
2014-5-11,87.8,71.5,57.1,66.9,58.0,44.4,80,64,46,30.19,29.97,0,0,0,0.00
2014-5-12,87.8,74.6,64.1,71.8,65.5,59.7,92,75,52,30.16,30.04,0,0,0,0.01
2014-5-13,64.3,53.6,47.2,62.3,48.4,40.3,94,83,69,30.48,30.04,0,0,0,0.00
2014-5-14,61.2,52.3,42.8,49.2,41.5,38.6,86,68,53,30.51,30.31,0,0,0,0.00
2014-5-15,59.0,49.7,43.7,44.8,41.9,38.4,91,75,58,30.31,30.24,0,0,0,0.00
2014-5-16,54.9,45.7,37.6,45.6,39.4,34.8,92,80,61,30.37,30.23,0,0,0,0.00
2014-5-17,79.2,54.6,36.7,55.2,37.7,33.1,88,56,36,30.44,30.36,0,0,0,0.00
2014-5-18,84.2,61.7,45.4,52.8,40.8,34.1,67,48,31,30.51,30.40,0,0,0,0.00
2014-5-19,73.8,62.6,49.5,59.3,49.8,40.7,86,64,46,30.45,30.09,0,0,0,0.00
2014-5-20,92.9,78.1,66.1,68.2,63.6,58.2,78,62,42,30.14,30.07,0,0,0,0.00
2014-5-21,94.0,76.8,64.3,76.8,61.3,49.3,91,62,40,30.31,30.07,0,0,0,0.00
2014-5-22,80.5,67.4,53.1,58.2,49.9,43.1,80,55,41,30.47,30.31,0,0,0,0.00
2014-5-23,87.1,67.9,50.6,60.4,48.5,44.1,80,52,34,30.49,30.40,0,0,0,0.00
2014-5-24,72.9,68.0,65.0,50.2,47.4,45.8,51,48,45,30.38,30.36,0,0,0,0.00
2014-5-25,92.2,73.6,53.5,63.5,54.1,44.4,76,52,35,30.39,30.26,0,0,0,0.00
2014-5-26,91.3,75.9,64.8,72.5,65.8,59.2,87,72,49,30.30,30.19,0,0,0,0.00
2014-5-27,89.5,75.6,67.3,75.9,67.1,61.0,88,76,56,30.23,30.14,0,0,0,0.01
2014-5-28,81.7,69.8,63.2,70.0,64.2,56.7,91,83,60,30.29,30.17,0,0,0,0.00
2014-5-29,82.4,70.6,56.7,68.9,60.6,51.0,82,71,57,30.36,30.27,0,0,0,0.00
2014-5-30,85.0,74.9,59.6,67.7,58.8,53.2,83,59,35,30.41,30.32,0,0,0,0.00
2014-5-31,90.7,76.9,59.4,66.8,61.0,52.6,79,59,41,30.41,30.25,0,0,0,0.00
2014-6-1,104.9,81.6,71.1,77.2,68.2,61.4,84,65,38,30.30,30.06,0,0,0,0.00
2014-6-2,81.9,76.1,67.5,69.4,66.6,63.2,89,73,59,30.14,30.01,0,0,0,0.00
2014-6-3,101.0,76.1,63.4,69.2,59.6,56.2,79,59,33,30.27,30.12,0,0,0,0.00
2014-6-4,69.8,65.1,59.8,62.7,59.7,55.0,93,83,71,30.18,29.93,0,0,0,0.01
2014-6-5,81.0,68.5,53.6,65.0,52.4,47.3,92,60,37,30.25,30.16,0,0,0,0.00
2014-6-6,94.7,74.1,56.9,63.9,56.7,47.5,74,56,34,30.26,30.17,0,0,0,0.00
2014-6-7,88.7,71.3,61.4,69.9,60.2,56.7,90,70,43,30.23,30.09,0,0,0,0.00
2014-6-8,76.9,66.6,59.0,65.5,59.4,52.9,92,78,64,30.31,30.15,0,0,0,0.00
2014-6-9,80.5,70.3,53.3,60.2,53.8,44.3,80,57,39,30.30,30.11,0,0,0,0.00
2014-6-10,69.8,63.0,57.8,61.8,56.8,50.3,92,81,67,30.15,30.03,0,0,0,0.01
2014-6-11,77.0,66.2,59.9,66.0,60.8,57.7,93,83,67,30.04,29.96,0,0,0,0.00
2014-6-12,75.1,66.9,57.8,66.0,58.3,46.9,93,75,55,30.20,30.00,0,0,0,0.00
2014-6-13,95.0,67.5,49.9,63.5,48.7,43.2,79,53,32,30.32,30.20,0,0,0,0.00
2014-6-14,83.2,69.3,54.0,58.9,49.5,44.6,73,51,35,30.33,30.13,0,0,0,0.00
2014-6-15,84.4,73.3,61.9,67.4,58.8,50.7,72,61,49,30.22,29.96,0,0,0,0.00
2014-6-16,110.5,81.2,63.2,78.6,66.5,57.1,82,63,34,30.31,30.03,0,0,0,0.00
2014-6-17,90.5,79.9,66.1,74.6,68.8,60.4,84,70,56,30.18,29.99,0,0,0,0.00
2014-6-18,85.1,77.0,70.7,75.2,68.7,62.4,81,76,71,30.22,30.10,0,0,0,0.00
2014-6-19,83.9,73.8,65.9,73.7,66.1,60.6,85,77,65,30.31,30.20,0,0,0,0.01
2014-6-20,93.2,77.1,66.6,81.3,67.2,60.1,81,72,63,30.26,30.19,0,0,0,0.00
2014-6-21,103.7,78.7,66.6,80.1,66.0,58.6,76,66,43,30.21,30.09,0,0,0,0.00
2014-6-22,86.4,71.3,63.7,71.7,61.8,56.0,77,72,57,30.18,30.04,0,0,0,0.01
2014-6-23,87.5,73.7,65.0,74.5,64.3,57.6,77,73,61,30.13,30.07,0,0,0,0.00
2014-6-24,101.2,77.6,65.9,77.9,64.3,57.3,74,65,45,30.20,30.10,0,0,0,0.00
2014-6-25,106.0,78.9,64.4,76.5,63.9,56.0,74,62,39,30.27,30.18,0,0,0,0.00
2014-6-26,81.0,69.8,63.9,68.8,60.5,55.6,75,73,66,30.33,30.19,0,0,0,0.58
2014-6-27,88.2,79.1,67.9,74.7,67.7,59.3,75,68,60,30.23,30.13,0,0,0,0.00
2014-6-28,86.8,77.9,68.6,73.6,67.4,59.6,74,70,64,30.22,30.09,0,0,0,0.00
2014-6-29,86.4,76.5,66.6,73.4,66.3,58.1,74,71,63,30.24,29.98,0,0,0,0.93
2014-6-30,84.2,72.7,68.0,73.8,63.3,59.4,75,73,70,30.19,30.02,0,0,0,2.69
2014-7-1,77.4,71.0,65.2,66.2,60.5,55.2,70,69,68,30.10,29.98,0,0,0,1.47
2014-7-2,76.7,66.7,58.9,61.3,55.6,49.5,72,68,58,30.32,30.09,0,0,0,0.00
2014-7-3,81.4,69.2,55.4,64.0,54.5,45.3,71,60,48,30.48,30.31,0,0,0,0.00
2014-7-4,82.1,68.5,56.0,63.9,54.8,46.4,73,63,39,30.58,30.48,0,0,0,0.39
2014-7-5,72.7,65.6,58.0,62.5,54.8,47.4,71,68,67,30.51,30.27,0,0,0,0.11
2014-7-6,86.0,75.8,63.5,74.2,64.6,53.2,69,68,66,30.27,29.97,0,0,0,0.00
2014-7-7,86.2,79.0,70.2,74.2,67.0,59.1,71,67,61,30.04,29.88,0,0,0,0.00
2014-7-8,81.4,75.9,67.5,65.8,62.3,57.8,71,63,54,30.12,29.87,0,0,0,0.00
2014-7-9,79.7,71.6,60.7,63.0,57.9,50.9,72,63,52,30.32,30.12,0,0,0,0.00
2014-7-10,83.3,68.9,61.2,63.6,56.7,51.5,73,66,50,30.42,30.32,0,0,0,0.00
2014-7-11,84.6,73.2,63.0,66.7,60.9,53.8,72,66,52,30.43,30.27,0,0,0,0.00
2014-7-12,88.9,78.0,70.2,75.9,66.5,58.3,70,68,61,30.32,30.05,0,0,0,0.67
2014-7-13,83.7,74.0,66.6,71.6,62.6,54.8,72,68,64,30.24,30.14,0,0,0,0.02
2014-7-14,80.5,70.9,59.6,67.2,56.8,49.0,70,62,49,30.20,30.10,0,0,0,0.00
2014-7-15,72.0,63.6,54.4,57.1,52.2,45.6,74,67,57,30.28,30.18,0,0,0,0.00
2014-7-16,81.5,67.9,54.5,60.7,54.3,45.7,72,63,46,30.31,30.25,0,0,0,0.00
2014-7-17,82.1,70.4,56.9,63.4,56.5,47.5,73,62,48,30.36,30.28,0,0,0,0.00
2014-7-18,82.4,71.9,58.7,63.6,57.5,49.3,72,61,46,30.41,30.31,0,0,0,0.00
2014-7-19,83.3,71.8,59.4,64.5,58.1,49.6,72,63,50,30.35,30.25,0,0,0,0.00
2014-7-20,85.7,73.5,61.7,66.6,60.3,51.9,72,64,51,30.31,30.23,0,0,0,0.00
2014-7-21,86.9,77.0,64.4,70.2,63.9,54.5,70,65,55,30.32,30.24,0,0,0,0.00
2014-7-22,91.1,82.2,72.4,77.6,70.0,62.1,70,67,60,30.26,30.17,0,0,0,0.00
2014-7-23,79.9,74.7,66.6,65.4,59.7,55.5,70,60,49,30.44,30.27,0,0,0,0.00
2014-7-24,79.6,70.1,58.9,59.6,55.2,49.5,73,60,46,30.45,30.24,0,0,0,0.00
2014-7-25,76.0,65.9,60.1,63.7,55.9,50.7,72,70,66,30.34,30.10,0,0,0,0.28
2014-7-26,84.2,74.5,66.1,71.6,63.3,56.0,70,68,61,30.12,30.04,0,0,0,0.00
2014-7-27,81.4,74.0,68.4,68.4,60.5,56.4,71,63,53,30.21,30.04,0,0,0,0.00
2014-7-28,78.1,70.7,60.8,58.2,54.6,51.3,71,58,45,30.41,30.22,0,0,0,0.00
2014-7-29,82.6,69.9,56.9,63.9,56.8,47.7,72,64,50,30.37,30.27,0,0,0,0.00
2014-7-30,83.2,71.3,59.0,65.3,58.7,49.3,71,65,53,30.33,30.27,0,0,0,0.00
2014-7-31,84.6,72.5,61.2,67.3,59.7,51.0,71,64,53,30.33,30.27,0,0,0,0.00
2014-8-1,86.2,74.1,64.6,67.3,60.5,54.7,71,63,51,30.38,30.28,0,0,0,0.05
2014-8-2,86.0,74.1,61.6,68.9,60.8,51.4,71,64,51,30.42,30.34,0,0,0,0.00
2014-8-3,86.2,75.7,64.8,69.5,61.9,53.5,70,63,51,30.43,30.32,0,0,0,0.00
2014-8-4,89.8,76.6,66.1,69.5,62.6,55.6,71,63,47,30.36,30.23,0,0,0,0.00
2014-8-5,82.4,71.8,64.1,68.1,60.0,52.0,71,67,60,30.33,30.25,0,0,0,0.00
2014-8-6,81.2,71.1,63.5,66.4,59.4,51.9,71,67,58,30.35,30.26,0,0,0,0.00
2014-8-7,79.4,70.0,60.1,64.4,58.2,50.4,71,66,58,30.31,30.23,0,0,0,0.00
2014-8-8,80.8,72.1,63.2,64.4,59.4,52.8,70,64,54,30.30,30.24,0,0,0,0.02
2014-8-9,81.4,72.7,61.6,63.6,59.0,51.4,71,63,49,30.34,30.27,0,0,0,0.00
2014-8-10,86.4,74.4,62.1,67.8,60.7,52.4,72,63,50,30.31,30.20,0,0,0,0.04
2014-8-11,84.8,74.2,64.4,70.0,61.9,54.8,73,66,59,30.23,30.10,0,0,0,0.01
2014-8-12,77.8,69.7,60.8,59.1,55.1,51.0,74,61,48,30.26,30.12,0,0,0,0.00
2014-8-13,83.2,71.8,57.4,63.0,57.7,48.4,72,62,50,30.34,30.25,0,0,0,0.00
2014-8-14,79.4,70.7,62.6,60.6,56.5,51.9,70,61,48,30.37,30.27,0,0,0,0.00
2014-8-15,77.6,67.1,55.6,62.1,55.2,46.7,72,66,55,30.33,30.18,0,0,0,0.00
2014-8-16,81.0,71.3,63.0,67.1,59.8,51.8,71,67,62,30.18,30.12,0,0,0,0.00
2014-8-17,82.6,73.2,63.0,67.0,60.5,51.0,71,65,57,30.22,30.14,0,0,0,0.00
2014-8-18,85.9,75.9,66.2,70.4,63.2,54.6,71,65,58,30.17,30.00,0,0,0,0.00
2014-8-19,84.8,77.3,69.5,70.7,64.4,58.9,71,65,56,30.05,29.92,0,0,0,0.00
2014-8-20,84.6,74.7,66.6,69.9,63.0,55.7,70,67,59,30.18,30.04,0,0,0,0.00
2014-8-21,84.8,75.3,70.4,72.6,62.9,57.6,68,65,64,30.19,30.10,0,0,0,0.40
2014-8-22,84.6,76.8,71.5,72.3,64.5,58.8,68,66,63,30.22,30.09,0,0,0,0.27
2014-8-23,78.5,73.8,69.1,66.4,60.9,55.5,67,64,62,30.27,30.16,0,0,0,0.98
2014-8-24,89.5,78.1,67.0,75.5,65.0,53.9,68,64,61,30.20,30.14,0,0,0,0.00
2014-8-25,91.1,79.6,74.0,77.0,66.8,61.3,70,65,61,30.26,30.16,0,0,0,0.01
2014-8-26,79.9,74.8,69.8,66.9,62.5,58.8,70,66,63,30.38,30.23,0,0,0,0.56
2014-8-27,82.6,72.7,66.6,66.8,60.3,55.7,70,65,57,30.41,30.31,0,0,0,0.00
2014-8-28,74.9,67.6,63.5,62.7,55.7,51.1,70,66,63,30.35,30.20,0,0,0,0.46
2014-8-29,85.3,75.2,65.3,73.2,62.4,52.6,67,65,59,30.21,30.03,0,0,0,0.01
2014-8-30,82.4,73.9,68.2,69.0,60.8,53.8,68,64,60,30.14,30.03,0,0,0,0.05
2014-8-31,84.6,75.7,64.1,69.8,61.8,50.3,68,62,58,30.17,30.01,0,0,0,0.00
2014-9-1,82.3,74.0,64.4,67.4,60.8,50.4,68,64,59,30.12,29.91,0,0,0,0.13
2014-9-2,80.1,72.9,63.7,64.8,58.9,50.1,68,62,57,30.22,30.06,0,0,0,0.00
2014-9-3,82.8,73.9,60.3,67.6,60.0,47.3,67,62,54,30.27,30.11,0,0,0,0.00
2014-9-4,85.3,76.4,66.8,72.2,63.1,52.5,66,63,59,30.20,30.06,0,0,0,0.90
2014-9-5,85.0,74.6,62.3,69.3,60.9,50.0,72,63,55,30.39,30.13,0,0,0,0.27
2014-9-6,71.3,64.4,55.4,57.1,51.0,42.6,69,62,53,30.48,30.37,0,0,0,0.00
2014-9-7,78.8,67.5,56.5,60.9,53.1,44.8,69,61,46,30.47,30.34,0,0,0,0.00
2014-9-8,78.1,67.9,57.1,57.3,53.2,46.5,69,60,45,30.36,30.16,0,0,0,0.00
2014-9-9,79.7,69.0,62.3,64.7,55.4,48.2,68,62,59,30.25,30.01,0,0,0,0.83
2014-9-10,74.0,67.3,56.5,57.7,52.0,41.4,61,58,54,30.19,29.70,0,0,0,0.75
2014-9-11,59.9,54.0,49.3,48.0,41.1,35.8,67,62,57,30.55,30.19,0,0,0,0.00
2014-9-12,56.3,49.8,42.5,44.7,37.2,29.8,66,62,58,30.60,30.53,0,0,0,0.11
2014-9-13,58.5,49.6,40.1,45.3,36.1,27.4,68,60,52,30.65,30.53,0,0,0,0.00
2014-9-14,65.3,55.8,43.4,47.2,41.9,33.1,68,60,50,30.55,30.38,0,0,0,0.00
2014-9-15,69.7,56.9,49.5,55.4,44.1,35.8,66,62,57,30.45,30.30,0,0,0,0.03
2014-9-16,51.1,46.9,44.5,36.8,33.2,31.1,59,59,58,30.48,30.43,0,0,0,0.00
2014-9-17,71.1,59.1,46.6,54.1,45.5,34.4,66,61,53,30.31,30.19,0,0,0,0.00
2014-9-18,72.0,61.1,49.9,53.7,45.6,35.2,65,57,48,30.37,30.26,0,0,0,0.00
2014-9-19,74.3,63.8,50.8,54.2,47.6,36.5,64,56,46,30.36,30.12,0,0,0,0.00
2014-9-20,77.2,70.0,63.7,62.7,55.1,47.4,63,59,53,30.15,30.00,0,0,0,0.04
2014-9-21,68.0,59.7,55.8,54.6,46.2,40.7,64,61,57,30.16,30.05,0,0,0,0.00
2014-9-22,67.1,61.1,46.1,48.2,44.9,31.6,64,55,47,30.58,30.46,0,0,0,0.00
2014-9-23,73.1,62.3,48.6,52.6,45.6,37.0,66,55,40,30.58,30.47,0,0,0,0.00
2014-9-24,76.0,64.7,54.4,54.1,47.8,42.2,64,55,40,30.57,30.45,0,0,0,0.00
2014-9-25,76.7,66.5,58.1,56.7,49.9,45.6,64,56,41,30.52,30.41,0,0,0,0.00
2014-9-26,80.5,68.5,55.4,59.9,52.4,41.8,64,57,47,30.49,30.40,0,0,0,0.00
2014-9-27,81.2,69.8,57.4,59.8,52.2,41.9,63,54,39,30.48,30.35,0,0,0,0.00
2014-9-28,80.8,68.8,56.9,59.4,52.5,41.8,63,56,44,30.41,30.29,0,0,0,0.00
2014-9-29,81.7,69.8,59.0,61.7,53.0,42.8,63,56,47,30.30,30.16,0,0,0,0.00
2014-9-30,64.6,57.5,51.7,47.1,42.7,37.4,64,58,50,30.29,30.17,0,0,0,0.00
2014-10-1,74.9,61.2,47.9,57.5,46.2,32.9,63,58,54,30.20,30.03,0,0,0,0.00
2014-10-2,73.3,65.9,62.1,59.0,49.3,45.2,62,55,53,30.07,29.82,0,0,0,0.04
2014-10-3,63.0,52.9,44.3,46.5,38.5,30.4,64,58,55,30.12,29.80,0,0,0,1.38
2014-10-4,52.9,45.6,39.2,35.6,32.1,27.6,68,59,50,30.06,29.97,0,0,0,0.00
2014-10-5,59.8,49.7,39.2,41.0,36.0,29.0,67,60,48,29.99,29.82,0,0,0,0.01
2014-10-6,60.5,54.2,48.4,43.0,39.2,36.4,65,57,45,29.87,29.76,0,0,0,0.00
2014-10-7,69.1,57.8,50.4,49.9,43.4,38.3,65,59,47,30.13,29.82,0,0,0,0.02
2014-10-8,65.9,56.3,46.1,43.6,39.1,34.9,65,54,39,30.31,30.12,0,0,0,0.00
2014-10-9,63.5,56.6,49.3,44.0,39.9,33.3,64,54,41,30.37,30.27,0,0,0,0.03
2014-10-10,61.4,52.1,42.1,41.5,37.0,31.3,66,57,46,30.44,30.36,0,0,0,0.00
2014-10-11,59.2,48.4,38.9,41.2,33.3,27.8,67,57,40,30.51,30.35,0,0,0,0.00
2014-10-12,59.9,49.3,37.6,45.2,35.6,27.3,66,59,53,30.35,30.06,0,0,0,0.05
2014-10-13,63.7,57.5,53.5,48.6,42.4,37.9,58,57,56,30.07,29.64,0,0,0,0.83
2014-10-14,60.8,57.8,53.3,45.6,42.0,36.6,57,56,53,29.81,29.63,0,0,0,0.38
2014-10-15,58.5,53.9,50.2,37.4,35.1,32.9,54,49,44,30.10,29.96,0,0,0,0.00
2014-10-16,65.3,55.8,48.4,37.1,32.4,27.5,52,42,27,30.11,29.83,0,0,0,0.00
2014-10-17,58.5,54.6,51.7,31.1,29.1,28.1,41,38,33,30.18,29.83,0,0,0,0.00
2014-10-18,56.9,50.1,41.9,30.6,25.9,21.2,46,39,31,30.45,30.18,0,0,0,0.00
2014-10-19,62.3,50.6,38.9,29.3,24.5,20.3,49,37,25,30.43,30.10,0,0,0,0.00
2014-10-20,66.8,57.0,49.3,35.9,28.9,23.5,42,34,27,30.27,30.05,0,0,0,0.00
2014-10-21,57.2,49.3,41.0,28.9,24.4,18.5,45,38,30,30.50,30.26,0,0,0,0.00
2014-10-22,59.0,46.8,35.1,29.0,22.1,17.5,50,38,29,30.58,30.43,0,0,0,0.00
2014-10-23,57.8,41.9,36.4,30.1,19.5,16.4,46,41,35,30.43,30.28,0,0,0,0.00
2014-10-24,67.7,61.2,49.3,36.5,33.2,28.7,48,36,24,30.30,30.13,0,0,0,0.00
2014-10-25,70.2,60.5,52.6,40.3,34.9,26.0,49,39,22,30.27,30.15,0,0,0,0.00
2014-10-26,66.4,54.6,42.8,34.4,25.4,15.9,37,32,28,30.27,29.95,0,0,0,0.00
2014-10-27,77.2,68.0,56.7,44.3,36.6,26.1,38,32,25,29.95,29.76,0,0,0,0.00
2014-10-28,58.7,53.6,47.9,32.4,28.8,23.9,41,38,36,30.25,30.06,0,0,0,0.00
2014-10-29,52.6,46.6,40.0,28.3,24.3,19.6,44,41,39,30.37,30.24,0,0,0,0.00
2014-10-30,54.9,50.0,37.3,30.9,26.0,16.3,43,39,36,30.36,30.26,0,0,0,0.00
2014-10-31,48.6,40.0,32.8,24.5,19.4,13.6,48,44,37,30.69,30.32,0,0,0,0.00
2014-11-1,44.5,35.4,25.7,23.2,16.0,7.4,47,45,43,30.74,30.60,0,0,0,0.00
2014-11-2,53.5,41.8,29.9,28.9,20.1,9.4,47,42,35,30.61,30.33,0,0,0,0.00
2014-11-3,67.7,55.8,42.3,41.8,32.5,23.0,47,42,37,30.34,30.12,0,0,0,0.07
2014-11-4,59.9,51.4,45.0,37.1,23.7,17.0,44,34,25,30.30,30.08,0,0,0,0.11
2014-11-5,61.2,55.1,39.4,32.7,27.3,18.1,42,34,28,30.35,30.08,0,0,0,0.00
2014-11-6,52.2,43.8,32.6,25.9,19.6,10.3,41,38,33,30.51,30.07,0,0,0,0.00
2014-11-7,47.5,39.2,29.2,24.2,16.6,8.2,42,40,37,30.50,29.95,0,0,0,0.00
2014-11-8,48.2,43.7,36.0,26.6,21.5,16.1,46,41,36,30.25,29.94,0,0,0,0.01
2014-11-9,56.0,46.3,35.8,32.9,24.3,15.0,44,42,40,30.20,29.96,0,0,0,0.00
2014-11-10,63.2,52.7,43.0,37.7,28.2,18.6,41,39,37,29.98,29.62,0,0,0,0.00
2014-11-11,52.4,37.1,29.2,26.6,15.2,10.5,46,41,37,30.47,29.80,0,0,0,0.13
2014-11-12,32.0,27.6,25.0,13.8,10.1,8.0,49,47,46,30.60,30.47,0,0,0,0.00
2014-11-13,31.1,27.1,21.8,12.7,9.1,5.0,48,46,43,30.62,30.57,0,0,0,0.00
2014-11-14,31.0,22.5,16.7,12.7,5.5,-0.3,49,48,45,30.65,30.57,0,0,0,0.01
2014-11-15,34.0,25.7,18.4,15.6,7.9,1.3,51,46,42,30.62,30.41,0,0,0,0.00
2014-11-16,34.9,25.8,14.0,13.6,6.4,-3.3,46,43,40,30.42,30.18,0,0,0,0.00
2014-11-17,19.8,14.4,11.9,3.6,-1.7,-4.6,51,48,45,30.31,30.15,0,0,0,0.00
2014-11-18,22.1,16.2,8.8,5.3,-0.0,-7.0,50,48,47,30.40,30.19,0,0,0,0.00
2014-11-19,29.5,24.8,17.1,11.7,7.2,0.7,49,47,44,30.31,29.97,0,0,0,0.00
2014-11-20,27.5,21.0,14.4,10.4,4.2,-0.9,52,48,44,30.60,30.30,0,0,0,0.00
2014-11-21,36.2,24.6,9.7,18.2,6.7,-6.6,51,46,39,30.66,30.34,0,0,0,0.00
2014-11-22,55.4,47.0,35.8,30.8,24.5,13.2,45,41,38,30.34,29.99,0,0,0,0.03
2014-11-23,52.7,50.2,47.9,32.6,30.7,29.1,50,47,42,29.99,29.34,0,0,0,0.35
2014-11-24,47.9,31.2,23.0,30.1,14.4,6.8,52,49,46,30.12,29.33,0,0,0,0.01
2014-11-25,25.2,21.0,16.7,8.0,4.5,0.5,50,49,47,30.40,30.12,0,0,0,0.00
2014-11-26,29.5,23.3,14.2,11.5,6.6,-1.1,51,48,47,30.51,30.29,0,0,0,0.00
2014-11-27,26.3,21.1,11.9,9.2,5.0,-2.4,53,49,47,30.69,30.51,0,0,0,0.00
2014-11-28,35.1,26.2,16.2,16.1,9.3,0.9,51,48,44,30.64,29.98,0,0,0,0.00
2014-11-29,49.5,40.3,29.9,29.9,23.1,14.0,52,50,47,29.98,29.75,0,0,0,0.02
2014-11-30,43.9,33.6,23.2,26.6,15.4,4.4,51,47,42,30.63,29.80,0,0,0,0.00
2014-12-1,23.2,18.3,11.2,5.9,1.9,-4.8,52,48,44,30.95,30.63,0,0,0,0.00
2014-12-2,34.9,24.6,11.5,13.6,5.0,-4.8,48,43,40,30.79,30.29,0,0,0,0.00
2014-12-3,35.5,28.6,22.7,16.1,9.7,4.0,47,45,41,30.64,30.30,0,0,0,0.00
2014-12-4,33.8,29.6,24.1,15.6,10.5,6.0,47,44,40,30.64,30.44,0,0,0,0.00
2014-12-5,40.0,35.6,31.7,18.9,16.4,11.9,50,45,41,30.52,30.37,0,0,0,0.00
2014-12-6,39.8,34.8,28.3,19.5,14.5,8.6,45,43,40,30.90,30.51,0,0,0,0.00
2014-12-7,37.1,31.4,24.8,16.9,11.6,6.4,46,44,41,30.89,30.46,0,0,0,0.00
2014-12-8,41.0,36.2,32.2,21.2,16.5,12.2,47,45,43,30.46,30.18,0,0,0,0.02
2014-12-9,40.3,34.9,30.8,18.1,14.1,11.2,44,42,40,30.64,30.27,0,0,0,0.00
2014-12-10,34.4,33.9,29.3,13.6,12.9,9.4,43,42,41,30.62,30.44,0,0,0,0.00
2014-12-24,36.5,35.7,34.2,17.5,16.0,12.9,46,44,41,30.08,29.90,0,0,0,0.00
2014-12-25,47.5,38.7,33.3,24.0,15.2,11.9,42,38,33,30.28,30.07,0,0,0,0.00
2014-12-26,52.2,45.3,40.7,29.2,20.1,15.7,41,37,35,30.33,30.24,0,0,0,0.00
2014-12-27,48.1,38.0,24.8,24.8,15.2,4.8,43,39,37,30.55,30.23,0,0,0,0.02
2014-12-28,33.3,25.8,19.3,19.2,8.1,-0.1,56,47,41,30.62,30.52,0,0,0,0.00
2014-12-29,31.9,27.1,18.2,17.4,10.8,5.7,59,50,41,30.94,30.61,0,0,0,0.00
2014-12-30,18.0,11.8,7.7,5.7,0.4,-2.3,64,60,56,31.14,30.92,0,0,0,0.00
2014-12-31,20.3,12.3,2.7,7.8,1.3,-7.1,64,61,57,31.05,30.52,0,0,0,0.00
2015-1-1,34.7,24.4,16.6,20.6,11.6,4.2,61,58,53,30.53,30.33,0,0,0,0.00
2015-1-2,36.9,28.2,19.6,22.5,11.5,1.4,56,49,42,30.68,30.46,0,0,0,0.00